sensor_id;sensor_type;location;lat;lon;timestamp;P1;durP1;ratioP1;P2;durP2;ratioP2
18399;SDS011;9326;49.468;11.008;2024-02-15T00:00:53;8.03;;;6.63;;
18399;SDS011;9326;49.468;11.008;2024-02-15T00:03:23;7.73;;;7.03;;
18399;SDS011;9326;49.468;11.008;2024-02-15T00:05:51;7.67;;;6.87;;
18399;SDS011;9326;49.468;11.008;2024-02-15T00:08:18;7.83;;;7.00;;
18399;SDS011;9326;49.468;11.008;2024-02-15T00:10:46;9.40;;;7.30;;
18399;SDS011;9326;49.468;11.008;2024-02-15T00:13:13;7.80;;;6.90;;
18399;SDS011;9326;49.468;11.008;2024-02-15T00:15:40;7.97;;;7.10;;
18399;SDS011;9326;49.468;11.008;2024-02-15T00:18:07;7.83;;;7.00;;
18399;SDS011;9326;49.468;11.008;2024-02-15T00:20:34;8.20;;;7.13;;
18399;SDS011;9326;49.468;11.008;2024-02-15T00:23:03;7.93;;;7.00;;
18399;SDS011;9326;49.468;11.008;2024-02-15T00:25:31;8.23;;;7.43;;
18399;SDS011;9326;49.468;11.008;2024-02-15T00:27:58;7.57;;;6.97;;
18399;SDS011;9326;49.468;11.008;2024-02-15T00:30:26;9.63;;;6.90;;
18399;SDS011;9326;49.468;11.008;2024-02-15T00:32:54;7.67;;;6.87;;
18399;SDS011;9326;49.468;11.008;2024-02-15T00:35:21;8.00;;;7.20;;
18399;SDS011;9326;49.468;11.008;2024-02-15T00:37:48;7.10;;;6.40;;
18399;SDS011;9326;49.468;11.008;2024-02-15T00:40:17;7.80;;;7.10;;
18399;SDS011;9326;49.468;11.008;2024-02-15T00:42:46;7.40;;;6.70;;
18399;SDS011;9326;49.468;11.008;2024-02-15T00:45:13;6.80;;;6.10;;
18399;SDS011;9326;49.468;11.008;2024-02-15T00:47:41;9.00;;;7.03;;
18399;SDS011;9326;49.468;11.008;2024-02-15T00:50:08;7.90;;;6.90;;
18399;SDS011;9326;49.468;11.008;2024-02-15T00:52:36;7.70;;;7.00;;
18399;SDS011;9326;49.468;11.008;2024-02-15T00:55:03;7.23;;;6.53;;
18399;SDS011;9326;49.468;11.008;2024-02-15T00:57:32;8.30;;;6.67;;
18399;SDS011;9326;49.468;11.008;2024-02-15T00:59:59;7.70;;;6.90;;
18399;SDS011;9326;49.468;11.008;2024-02-15T06:00:19;11.20;;;6.30;;
18399;SDS011;9326;49.468;11.008;2024-02-15T06:02:46;7.40;;;5.97;;
18399;SDS011;9326;49.468;11.008;2024-02-15T06:05:14;9.20;;;6.37;;
18399;SDS011;9326;49.468;11.008;2024-02-15T06:07:43;10.53;;;6.70;;
18399;SDS011;9326;49.468;11.008;2024-02-15T06:10:11;11.70;;;7.57;;
18399;SDS011;9326;49.468;11.008;2024-02-15T06:12:39;17.27;;;7.70;;
18399;SDS011;9326;49.468;11.008;2024-02-15T06:15:07;18.67;;;8.20;;
18399;SDS011;9326;49.468;11.008;2024-02-15T06:17:41;22.27;;;8.60;;
18399;SDS011;9326;49.468;11.008;2024-02-15T06:20:11;21.83;;;9.07;;
18399;SDS011;9326;49.468;11.008;2024-02-15T06:22:40;21.13;;;9.23;;
18399;SDS011;9326;49.468;11.008;2024-02-15T06:25:08;16.53;;;7.93;;
18399;SDS011;9326;49.468;11.008;2024-02-15T06:27:36;15.50;;;7.10;;
18399;SDS011;9326;49.468;11.008;2024-02-15T06:30:06;9.83;;;6.80;;
18399;SDS011;9326;49.468;11.008;2024-02-15T06:32:52;12.67;;;6.60;;
18399;SDS011;9326;49.468;11.008;2024-02-15T06:35:37;9.03;;;5.90;;
18399;SDS011;9326;49.468;11.008;2024-02-15T06:38:22;6.83;;;5.67;;
18399;SDS011;9326;49.468;11.008;2024-02-15T06:41:07;6.60;;;5.97;;
18399;SDS011;9326;49.468;11.008;2024-02-15T06:43:34;8.23;;;5.90;;
18399;SDS011;9326;49.468;11.008;2024-02-15T06:46:02;6.37;;;5.33;;
18399;SDS011;9326;49.468;11.008;2024-02-15T06:48:30;7.03;;;5.97;;
18399;SDS011;9326;49.468;11.008;2024-02-15T06:50:57;7.10;;;5.93;;
18399;SDS011;9326;49.468;11.008;2024-02-15T06:53:24;7.53;;;5.87;;
18399;SDS011;9326;49.468;11.008;2024-02-15T06:55:52;8.20;;;6.30;;
18399;SDS011;9326;49.468;11.008;2024-02-15T06:58:19;6.23;;;5.63;;
18399;SDS011;9326;49.468;11.008;2024-02-15T07:00:47;6.63;;;5.90;;
18399;SDS011;9326;49.468;11.008;2024-02-15T07:03:15;6.53;;;5.93;;
18399;SDS011;9326;49.468;11.008;2024-02-15T07:05:44;6.50;;;5.90;;
18399;SDS011;9326;49.468;11.008;2024-02-15T07:08:11;8.53;;;6.33;;
18399;SDS011;9326;49.468;11.008;2024-02-15T07:10:38;8.93;;;6.60;;
18399;SDS011;9326;49.468;11.008;2024-02-15T07:13:06;10.00;;;6.83;;
18399;SDS011;9326;49.468;11.008;2024-02-15T07:15:33;11.53;;;7.10;;
18399;SDS011;9326;49.468;11.008;2024-02-15T07:18:03;11.00;;;6.73;;
18399;SDS011;9326;49.468;11.008;2024-02-15T07:20:31;13.27;;;7.10;;
18399;SDS011;9326;49.468;11.008;2024-02-15T07:22:59;10.37;;;7.20;;
18399;SDS011;9326;49.468;11.008;2024-02-15T07:25:26;8.40;;;6.43;;
18399;SDS011;9326;49.468;11.008;2024-02-15T07:27:53;10.77;;;7.70;;
18399;SDS011;9326;49.468;11.008;2024-02-15T07:30:22;10.67;;;7.50;;
18399;SDS011;9326;49.468;11.008;2024-02-15T07:32:49;13.60;;;7.80;;
18399;SDS011;9326;49.468;11.008;2024-02-15T07:35:17;13.97;;;8.40;;
18399;SDS011;9326;49.468;11.008;2024-02-15T07:37:50;32.30;;;10.87;;
18399;SDS011;9326;49.468;11.008;2024-02-15T07:40:19;31.83;;;10.70;;
18399;SDS011;9326;49.468;11.008;2024-02-15T07:42:47;40.00;;;12.20;;
18399;SDS011;9326;49.468;11.008;2024-02-15T07:45:14;28.87;;;10.17;;
18399;SDS011;9326;49.468;11.008;2024-02-15T07:47:43;26.27;;;10.13;;
18399;SDS011;9326;49.468;11.008;2024-02-15T07:50:14;25.67;;;9.30;;
18399;SDS011;9326;49.468;11.008;2024-02-15T07:52:44;28.20;;;10.17;;
18399;SDS011;9326;49.468;11.008;2024-02-15T07:55:11;23.33;;;9.40;;
18399;SDS011;9326;49.468;11.008;2024-02-15T07:57:39;39.13;;;12.17;;
18399;SDS011;9326;49.468;11.008;2024-02-15T08:00:07;40.63;;;11.70;;
18399;SDS011;9326;49.468;11.008;2024-02-15T08:02:35;36.97;;;10.97;;
18399;SDS011;9326;49.468;11.008;2024-02-15T08:05:05;41.03;;;12.47;;
18399;SDS011;9326;49.468;11.008;2024-02-15T08:07:35;43.83;;;13.00;;
18399;SDS011;9326;49.468;11.008;2024-02-15T08:10:02;44.67;;;11.70;;
18399;SDS011;9326;49.468;11.008;2024-02-15T08:12:29;37.87;;;10.90;;
18399;SDS011;9326;49.468;11.008;2024-02-15T08:14:58;30.73;;;10.27;;
18399;SDS011;9326;49.468;11.008;2024-02-15T08:17:25;24.83;;;8.80;;
18399;SDS011;9326;49.468;11.008;2024-02-15T08:19:54;34.53;;;11.37;;
18399;SDS011;9326;49.468;11.008;2024-02-15T08:22:21;29.50;;;9.80;;
18399;SDS011;9326;49.468;11.008;2024-02-15T08:24:49;14.93;;;7.57;;
18399;SDS011;9326;49.468;11.008;2024-02-15T08:27:16;14.63;;;7.67;;
18399;SDS011;9326;49.468;11.008;2024-02-15T08:29:43;24.97;;;8.73;;
18399;SDS011;9326;49.468;11.008;2024-02-15T08:32:11;25.97;;;9.67;;
18399;SDS011;9326;49.468;11.008;2024-02-15T08:34:39;29.60;;;10.30;;
18399;SDS011;9326;49.468;11.008;2024-02-15T08:37:06;52.00;;;13.43;;
18399;SDS011;9326;49.468;11.008;2024-02-15T08:39:34;43.77;;;12.43;;
18399;SDS011;9326;49.468;11.008;2024-02-15T08:42:01;54.00;;;13.73;;
18399;SDS011;9326;49.468;11.008;2024-02-15T08:44:29;46.13;;;12.23;;
18399;SDS011;9326;49.468;11.008;2024-02-15T08:46:56;32.90;;;9.33;;
18399;SDS011;9326;49.468;11.008;2024-02-15T08:49:24;29.40;;;9.47;;
18399;SDS011;9326;49.468;11.008;2024-02-15T08:51:52;32.73;;;9.67;;
18399;SDS011;9326;49.468;11.008;2024-02-15T08:54:19;44.87;;;11.43;;
18399;SDS011;9326;49.468;11.008;2024-02-15T08:56:47;16.57;;;6.67;;
18399;SDS011;9326;49.468;11.008;2024-02-15T08:59:14;9.10;;;5.50;;
18399;SDS011;9326;49.468;11.008;2024-02-15T09:01:42;13.27;;;5.27;;
18399;SDS011;9326;49.468;11.008;2024-02-15T09:04:11;10.37;;;5.47;;
18399;SDS011;9326;49.468;11.008;2024-02-15T09:06:39;6.90;;;5.00;;
18399;SDS011;9326;49.468;11.008;2024-02-15T09:09:08;7.67;;;5.13;;
18399;SDS011;9326;49.468;11.008;2024-02-15T09:11:35;9.03;;;4.77;;
18399;SDS011;9326;49.468;11.008;2024-02-15T09:14:02;6.77;;;4.23;;
18399;SDS011;9326;49.468;11.008;2024-02-15T09:16:29;13.07;;;5.53;;
18399;SDS011;9326;49.468;11.008;2024-02-15T09:18:57;6.20;;;3.90;;
18399;SDS011;9326;49.468;11.008;2024-02-15T09:21:25;6.50;;;3.90;;
18399;SDS011;9326;49.468;11.008;2024-02-15T09:23:54;13.23;;;4.90;;
18399;SDS011;9326;49.468;11.008;2024-02-15T09:26:22;6.47;;;4.43;;
18399;SDS011;9326;49.468;11.008;2024-02-15T09:28:49;6.20;;;3.83;;
18399;SDS011;9326;49.468;11.008;2024-02-15T09:31:18;6.50;;;3.90;;
18399;SDS011;9326;49.468;11.008;2024-02-15T09:33:45;4.33;;;3.30;;
18399;SDS011;9326;49.468;11.008;2024-02-15T09:36:12;8.10;;;3.47;;
18399;SDS011;9326;49.468;11.008;2024-02-15T09:38:41;7.77;;;3.93;;
18399;SDS011;9326;49.468;11.008;2024-02-15T09:41:10;8.70;;;4.03;;
18399;SDS011;9326;49.468;11.008;2024-02-15T09:43:37;6.27;;;3.83;;
18399;SDS011;9326;49.468;11.008;2024-02-15T09:46:04;12.17;;;4.80;;
18399;SDS011;9326;49.468;11.008;2024-02-15T09:48:32;15.77;;;5.50;;
18399;SDS011;9326;49.468;11.008;2024-02-15T09:51:00;16.37;;;5.63;;
18399;SDS011;9326;49.468;11.008;2024-02-15T09:53:28;10.17;;;4.80;;
18399;SDS011;9326;49.468;11.008;2024-02-15T09:55:55;5.70;;;3.67;;
18399;SDS011;9326;49.468;11.008;2024-02-15T09:58:30;5.80;;;3.57;;
18399;SDS011;9326;49.468;11.008;2024-02-15T10:01:00;6.27;;;3.30;;
18399;SDS011;9326;49.468;11.008;2024-02-15T10:03:34;5.60;;;3.27;;
18399;SDS011;9326;49.468;11.008;2024-02-15T10:06:03;5.50;;;3.80;;
18399;SDS011;9326;49.468;11.008;2024-02-15T10:08:31;6.47;;;3.50;;
18399;SDS011;9326;49.468;11.008;2024-02-15T10:11:05;5.17;;;4.67;;
18399;SDS011;9326;49.468;11.008;2024-02-15T10:13:34;5.70;;;3.90;;
18399;SDS011;9326;49.468;11.008;2024-02-15T10:16:13;6.27;;;3.43;;
18399;SDS011;9326;49.468;11.008;2024-02-15T10:18:40;3.93;;;3.00;;
18399;SDS011;9326;49.468;11.008;2024-02-15T10:21:07;12.63;;;11.30;;
18399;SDS011;9326;49.468;11.008;2024-02-15T10:23:36;14.67;;;10.73;;
18399;SDS011;9326;49.468;11.008;2024-02-15T10:28:49;5.70;;;4.63;;
18399;SDS011;9326;49.468;11.008;2024-02-15T10:31:32;7.27;;;5.17;;
18399;SDS011;9326;49.468;11.008;2024-02-15T10:34:01;55.30;;;32.50;;
18399;SDS011;9326;49.468;11.008;2024-02-15T10:36:30;7.50;;;4.90;;
18399;SDS011;9326;49.468;11.008;2024-02-15T10:39:10;5.27;;;3.00;;
18399;SDS011;9326;49.468;11.008;2024-02-15T10:41:37;13.83;;;9.80;;
18399;SDS011;9326;49.468;11.008;2024-02-15T10:44:08;3.97;;;2.90;;
18399;SDS011;9326;49.468;11.008;2024-02-15T10:46:35;3.47;;;2.90;;
18399;SDS011;9326;49.468;11.008;2024-02-15T10:49:02;6.00;;;4.63;;
18399;SDS011;9326;49.468;11.008;2024-02-15T10:51:30;12.50;;;8.17;;
18399;SDS011;9326;49.468;11.008;2024-02-15T10:53:58;4.27;;;3.00;;
18399;SDS011;9326;49.468;11.008;2024-02-15T10:56:33;14.20;;;6.80;;
18399;SDS011;9326;49.468;11.008;2024-02-15T10:59:12;17.67;;;11.87;;
18399;SDS011;9326;49.468;11.008;2024-02-15T11:01:43;7.63;;;4.50;;
18399;SDS011;9326;49.468;11.008;2024-02-15T11:04:14;17.53;;;10.43;;
18399;SDS011;9326;49.468;11.008;2024-02-15T11:06:42;30.83;;;18.30;;
18399;SDS011;9326;49.468;11.008;2024-02-15T11:09:10;24.07;;;14.83;;
18399;SDS011;9326;49.468;11.008;2024-02-15T11:11:39;11.43;;;6.67;;
18399;SDS011;9326;49.468;11.008;2024-02-15T11:14:25;10.77;;;6.77;;
18399;SDS011;9326;49.468;11.008;2024-02-15T11:16:55;6.63;;;4.63;;
18399;SDS011;9326;49.468;11.008;2024-02-15T11:19:40;9.67;;;4.70;;
18399;SDS011;9326;49.468;11.008;2024-02-15T11:22:11;11.37;;;5.20;;
18399;SDS011;9326;49.468;11.008;2024-02-15T11:24:45;23.20;;;13.43;;
18399;SDS011;9326;49.468;11.008;2024-02-15T11:27:12;7.57;;;5.23;;
18399;SDS011;9326;49.468;11.008;2024-02-15T11:29:50;7.53;;;3.70;;
18399;SDS011;9326;49.468;11.008;2024-02-15T11:35:10;29.07;;;23.00;;
18399;SDS011;9326;49.468;11.008;2024-02-15T11:37:51;11.83;;;8.70;;
18399;SDS011;9326;49.468;11.008;2024-02-15T11:40:19;5.60;;;3.60;;
18399;SDS011;9326;49.468;11.008;2024-02-15T11:42:48;19.83;;;16.37;;
18399;SDS011;9326;49.468;11.008;2024-02-15T11:45:15;15.00;;;12.43;;
18399;SDS011;9326;49.468;11.008;2024-02-15T11:47:46;9.17;;;8.00;;
18399;SDS011;9326;49.468;11.008;2024-02-15T11:50:17;6.27;;;3.03;;
18399;SDS011;9326;49.468;11.008;2024-02-15T11:52:45;5.63;;;3.43;;
18399;SDS011;9326;49.468;11.008;2024-02-15T11:55:14;5.87;;;2.77;;
18399;SDS011;9326;49.468;11.008;2024-02-15T11:57:41;4.40;;;3.70;;
18399;SDS011;9326;49.468;11.008;2024-02-15T12:00:20;3.93;;;2.50;;
18399;SDS011;9326;49.468;11.008;2024-02-15T12:03:01;4.40;;;4.10;;
18399;SDS011;9326;49.468;11.008;2024-02-15T12:05:48;3.53;;;2.50;;
18399;SDS011;9326;49.468;11.008;2024-02-15T12:08:33;4.50;;;2.33;;
18399;SDS011;9326;49.468;11.008;2024-02-15T12:11:18;3.33;;;2.20;;
18399;SDS011;9326;49.468;11.008;2024-02-15T12:14:03;7.87;;;5.00;;
18399;SDS011;9326;49.468;11.008;2024-02-15T12:16:58;5.93;;;4.00;;
18399;SDS011;9326;49.468;11.008;2024-02-15T12:19:42;5.87;;;3.77;;
18399;SDS011;9326;49.468;11.008;2024-02-15T12:22:10;3.70;;;2.10;;
18399;SDS011;9326;49.468;11.008;2024-02-15T12:24:38;3.20;;;1.80;;
18399;SDS011;9326;49.468;11.008;2024-02-15T12:27:05;4.73;;;1.70;;
18399;SDS011;9326;49.468;11.008;2024-02-15T12:29:32;2.20;;;1.60;;
18399;SDS011;9326;49.468;11.008;2024-02-15T12:32:00;2.57;;;1.70;;
18399;SDS011;9326;49.468;11.008;2024-02-15T12:34:29;5.07;;;1.77;;
18399;SDS011;9326;49.468;11.008;2024-02-15T12:37:06;1.93;;;1.40;;
18399;SDS011;9326;49.468;11.008;2024-02-15T12:39:35;3.13;;;1.37;;
18399;SDS011;9326;49.468;11.008;2024-02-15T12:42:03;2.40;;;1.60;;
18399;SDS011;9326;49.468;11.008;2024-02-15T12:44:34;2.03;;;1.03;;
18399;SDS011;9326;49.468;11.008;2024-02-15T12:47:01;4.20;;;1.60;;
18399;SDS011;9326;49.468;11.008;2024-02-15T12:49:30;2.37;;;1.07;;
18399;SDS011;9326;49.468;11.008;2024-02-15T12:54:46;5.70;;;3.97;;
18399;SDS011;9326;49.468;11.008;2024-02-15T12:57:13;4.03;;;3.20;;
18399;SDS011;9326;49.468;11.008;2024-02-15T12:59:41;4.80;;;2.90;;
18399;SDS011;9326;49.468;11.008;2024-02-15T13:02:08;4.13;;;1.40;;
18399;SDS011;9326;49.468;11.008;2024-02-15T13:04:37;4.53;;;2.30;;
18399;SDS011;9326;49.468;11.008;2024-02-15T13:07:04;4.33;;;2.10;;
18399;SDS011;9326;49.468;11.008;2024-02-15T13:09:32;1.63;;;0.97;;
18399;SDS011;9326;49.468;11.008;2024-02-15T13:12:00;2.00;;;1.37;;
18399;SDS011;9326;49.468;11.008;2024-02-15T13:14:29;3.87;;;1.90;;
18399;SDS011;9326;49.468;11.008;2024-02-15T13:16:56;1.90;;;1.50;;
18399;SDS011;9326;49.468;11.008;2024-02-15T13:19:24;2.67;;;1.30;;
18399;SDS011;9326;49.468;11.008;2024-02-15T13:21:51;4.10;;;1.17;;
18399;SDS011;9326;49.468;11.008;2024-02-15T13:24:22;2.00;;;0.93;;
18399;SDS011;9326;49.468;11.008;2024-02-15T13:26:51;2.07;;;1.20;;
18399;SDS011;9326;49.468;11.008;2024-02-15T13:29:23;4.30;;;1.33;;
18399;SDS011;9326;49.468;11.008;2024-02-15T13:31:52;4.03;;;1.20;;
18399;SDS011;9326;49.468;11.008;2024-02-15T13:34:19;1.03;;;0.90;;
18399;SDS011;9326;49.468;11.008;2024-02-15T13:36:47;2.63;;;1.37;;
18399;SDS011;9326;49.468;11.008;2024-02-15T13:39:14;2.73;;;1.17;;
18399;SDS011;9326;49.468;11.008;2024-02-15T13:41:43;2.63;;;1.20;;
18399;SDS011;9326;49.468;11.008;2024-02-15T13:44:10;4.30;;;1.17;;
18399;SDS011;9326;49.468;11.008;2024-02-15T13:46:39;1.87;;;1.20;;
18399;SDS011;9326;49.468;11.008;2024-02-15T13:49:07;2.87;;;1.23;;
18399;SDS011;9326;49.468;11.008;2024-02-15T13:51:38;4.30;;;1.40;;
18399;SDS011;9326;49.468;11.008;2024-02-15T13:54:05;2.40;;;1.20;;
18399;SDS011;9326;49.468;11.008;2024-02-15T13:56:33;2.60;;;1.20;;
18399;SDS011;9326;49.468;11.008;2024-02-15T13:59:00;30.07;;;16.60;;
18399;SDS011;9326;49.468;11.008;2024-02-15T14:01:27;18.07;;;11.20;;
18399;SDS011;9326;49.468;11.008;2024-02-15T14:03:56;4.47;;;2.97;;
18399;SDS011;9326;49.468;11.008;2024-02-15T14:06:23;6.27;;;4.50;;
18399;SDS011;9326;49.468;11.008;2024-02-15T14:08:50;8.17;;;7.37;;
18399;SDS011;9326;49.468;11.008;2024-02-15T14:11:17;2.60;;;1.90;;
18399;SDS011;9326;49.468;11.008;2024-02-15T14:13:44;7.60;;;4.77;;
18399;SDS011;9326;49.468;11.008;2024-02-15T14:16:11;2.93;;;1.30;;
18399;SDS011;9326;49.468;11.008;2024-02-15T14:18:39;3.77;;;2.20;;
18399;SDS011;9326;49.468;11.008;2024-02-15T14:21:11;8.90;;;5.60;;
18399;SDS011;9326;49.468;11.008;2024-02-15T14:23:38;18.93;;;10.77;;
18399;SDS011;9326;49.468;11.008;2024-02-15T14:26:05;27.37;;;14.53;;
18399;SDS011;9326;49.468;11.008;2024-02-15T14:28:32;16.73;;;9.27;;
18399;SDS011;9326;49.468;11.008;2024-02-15T14:31:00;10.10;;;5.33;;
18399;SDS011;9326;49.468;11.008;2024-02-15T14:33:45;7.00;;;4.10;;
18399;SDS011;9326;49.468;11.008;2024-02-15T14:36:14;5.37;;;3.90;;
18399;SDS011;9326;49.468;11.008;2024-02-15T14:38:41;7.83;;;4.10;;
18399;SDS011;9326;49.468;11.008;2024-02-15T14:41:09;33.90;;;15.17;;
18399;SDS011;9326;49.468;11.008;2024-02-15T14:43:36;23.97;;;11.83;;
18399;SDS011;9326;49.468;11.008;2024-02-15T14:46:03;19.73;;;10.80;;
18399;SDS011;9326;49.468;11.008;2024-02-15T14:48:33;29.80;;;16.37;;
18399;SDS011;9326;49.468;11.008;2024-02-15T14:51:00;72.27;;;39.97;;
18399;SDS011;9326;49.468;11.008;2024-02-15T14:53:29;21.00;;;11.20;;
18399;SDS011;9326;49.468;11.008;2024-02-15T14:55:56;21.93;;;11.73;;
18399;SDS011;9326;49.468;11.008;2024-02-15T14:58:23;16.63;;;9.87;;
18399;SDS011;9326;49.468;11.008;2024-02-15T15:00:50;8.50;;;5.40;;
18399;SDS011;9326;49.468;11.008;2024-02-15T15:03:18;4.33;;;2.83;;
18399;SDS011;9326;49.468;11.008;2024-02-15T15:05:45;5.70;;;2.13;;
18399;SDS011;9326;49.468;11.008;2024-02-15T15:08:31;2.40;;;1.70;;
18399;SDS011;9326;49.468;11.008;2024-02-15T15:11:16;3.27;;;2.87;;
18399;SDS011;9326;49.468;11.008;2024-02-15T15:14:00;5.90;;;3.27;;
18399;SDS011;9326;49.468;11.008;2024-02-15T15:16:29;2.90;;;1.60;;
18399;SDS011;9326;49.468;11.008;2024-02-15T15:18:56;3.60;;;1.40;;
18399;SDS011;9326;49.468;11.008;2024-02-15T15:21:23;3.77;;;1.37;;
18399;SDS011;9326;49.468;11.008;2024-02-15T15:23:53;2.97;;;1.03;;
18399;SDS011;9326;49.468;11.008;2024-02-15T15:26:21;3.63;;;2.60;;
18399;SDS011;9326;49.468;11.008;2024-02-15T15:28:48;22.50;;;16.70;;
18399;SDS011;9326;49.468;11.008;2024-02-15T15:31:16;9.83;;;6.90;;
18399;SDS011;9326;49.468;11.008;2024-02-15T15:33:44;6.90;;;6.17;;
18399;SDS011;9326;49.468;11.008;2024-02-15T15:36:12;5.23;;;3.83;;
18399;SDS011;9326;49.468;11.008;2024-02-15T15:38:42;11.73;;;10.63;;
18399;SDS011;9326;49.468;11.008;2024-02-15T15:41:10;5.80;;;5.17;;
18399;SDS011;9326;49.468;11.008;2024-02-15T15:43:38;5.87;;;5.27;;
18399;SDS011;9326;49.468;11.008;2024-02-15T15:46:05;8.50;;;6.07;;
18399;SDS011;9326;49.468;11.008;2024-02-15T15:48:33;9.47;;;8.27;;
18399;SDS011;9326;49.468;11.008;2024-02-15T15:51:01;10.17;;;7.90;;
18399;SDS011;9326;49.468;11.008;2024-02-15T15:53:30;9.90;;;8.33;;
18399;SDS011;9326;49.468;11.008;2024-02-15T15:55:58;7.20;;;3.83;;
18399;SDS011;9326;49.468;11.008;2024-02-15T15:58:27;4.63;;;3.67;;
18399;SDS011;9326;49.468;11.008;2024-02-15T16:00:54;8.17;;;5.07;;
18399;SDS011;9326;49.468;11.008;2024-02-15T16:03:22;9.13;;;6.00;;
18399;SDS011;9326;49.468;11.008;2024-02-15T16:05:49;14.20;;;9.70;;
18399;SDS011;9326;49.468;11.008;2024-02-15T16:08:17;15.97;;;10.80;;
18399;SDS011;9326;49.468;11.008;2024-02-15T16:10:44;14.07;;;10.60;;
18399;SDS011;9326;49.468;11.008;2024-02-15T16:13:11;15.03;;;9.23;;
18399;SDS011;9326;49.468;11.008;2024-02-15T16:15:40;14.40;;;10.40;;
18399;SDS011;9326;49.468;11.008;2024-02-15T16:18:10;13.77;;;8.40;;
18399;SDS011;9326;49.468;11.008;2024-02-15T16:20:39;11.80;;;7.60;;
18399;SDS011;9326;49.468;11.008;2024-02-15T16:23:06;12.70;;;7.00;;
18399;SDS011;9326;49.468;11.008;2024-02-15T16:25:33;12.43;;;8.10;;
18399;SDS011;9326;49.468;11.008;2024-02-15T16:28:00;13.10;;;7.20;;
18399;SDS011;9326;49.468;11.008;2024-02-15T16:30:31;12.40;;;7.53;;
18399;SDS011;9326;49.468;11.008;2024-02-15T16:33:00;14.27;;;7.73;;
18399;SDS011;9326;49.468;11.008;2024-02-15T16:35:29;10.80;;;5.80;;
18399;SDS011;9326;49.468;11.008;2024-02-15T16:37:56;9.17;;;5.70;;
18399;SDS011;9326;49.468;11.008;2024-02-15T16:40:23;9.67;;;5.57;;
18399;SDS011;9326;49.468;11.008;2024-02-15T16:42:53;10.03;;;5.33;;
18399;SDS011;9326;49.468;11.008;2024-02-15T16:45:22;8.03;;;5.63;;
18399;SDS011;9326;49.468;11.008;2024-02-15T16:47:50;7.80;;;5.23;;
18399;SDS011;9326;49.468;11.008;2024-02-15T16:50:22;8.23;;;5.20;;
18399;SDS011;9326;49.468;11.008;2024-02-15T16:52:49;8.43;;;4.83;;
18399;SDS011;9326;49.468;11.008;2024-02-15T16:55:16;15.60;;;5.33;;
18399;SDS011;9326;49.468;11.008;2024-02-15T16:57:44;9.83;;;5.40;;
18399;SDS011;9326;49.468;11.008;2024-02-15T17:00:11;9.07;;;4.83;;
18399;SDS011;9326;49.468;11.008;2024-02-15T17:02:42;7.03;;;3.50;;
18399;SDS011;9326;49.468;11.008;2024-02-15T17:05:09;7.53;;;4.00;;
18399;SDS011;9326;49.468;11.008;2024-02-15T17:07:38;8.50;;;4.03;;
18399;SDS011;9326;49.468;11.008;2024-02-15T17:10:06;7.10;;;4.67;;
18399;SDS011;9326;49.468;11.008;2024-02-15T17:12:33;9.60;;;5.00;;
18399;SDS011;9326;49.468;11.008;2024-02-15T17:15:00;10.13;;;6.13;;
18399;SDS011;9326;49.468;11.008;2024-02-15T17:17:27;10.70;;;5.67;;
18399;SDS011;9326;49.468;11.008;2024-02-15T17:19:54;8.67;;;5.60;;
18399;SDS011;9326;49.468;11.008;2024-02-15T17:22:21;10.30;;;7.40;;
18399;SDS011;9326;49.468;11.008;2024-02-15T17:24:50;13.17;;;8.27;;
18399;SDS011;9326;49.468;11.008;2024-02-15T17:27:18;17.90;;;12.67;;
18399;SDS011;9326;49.468;11.008;2024-02-15T17:29:45;137.60;;;83.27;;
18399;SDS011;9326;49.468;11.008;2024-02-15T17:32:12;42.27;;;29.67;;
18399;SDS011;9326;49.468;11.008;2024-02-15T17:34:39;26.83;;;19.13;;
18399;SDS011;9326;49.468;11.008;2024-02-15T17:37:06;20.50;;;13.97;;
18399;SDS011;9326;49.468;11.008;2024-02-15T17:39:34;17.93;;;12.10;;
18399;SDS011;9326;49.468;11.008;2024-02-15T17:42:03;17.90;;;12.03;;
18399;SDS011;9326;49.468;11.008;2024-02-15T17:44:30;12.83;;;8.37;;
18399;SDS011;9326;49.468;11.008;2024-02-15T17:46:58;18.00;;;14.47;;
18399;SDS011;9326;49.468;11.008;2024-02-15T17:49:25;20.73;;;13.80;;
18399;SDS011;9326;49.468;11.008;2024-02-15T17:51:52;15.47;;;12.30;;
18399;SDS011;9326;49.468;11.008;2024-02-15T17:54:19;11.90;;;9.07;;
18399;SDS011;9326;49.468;11.008;2024-02-15T17:56:48;12.07;;;8.70;;
18399;SDS011;9326;49.468;11.008;2024-02-15T17:59:16;10.13;;;7.20;;
18399;SDS011;9326;49.468;11.008;2024-02-15T18:01:44;11.17;;;9.33;;
18399;SDS011;9326;49.468;11.008;2024-02-15T18:04:13;8.73;;;7.83;;
18399;SDS011;9326;49.468;11.008;2024-02-15T18:06:41;7.77;;;6.97;;
18399;SDS011;9326;49.468;11.008;2024-02-15T18:09:08;8.47;;;6.80;;
18399;SDS011;9326;49.468;11.008;2024-02-15T18:11:37;9.10;;;6.60;;
18399;SDS011;9326;49.468;11.008;2024-02-15T18:14:04;8.87;;;6.50;;
18399;SDS011;9326;49.468;11.008;2024-02-15T18:16:32;9.63;;;7.47;;
18399;SDS011;9326;49.468;11.008;2024-02-15T18:19:00;8.13;;;6.90;;
18399;SDS011;9326;49.468;11.008;2024-02-15T18:21:29;12.77;;;9.20;;
18399;SDS011;9326;49.468;11.008;2024-02-15T18:23:58;16.03;;;13.47;;
18399;SDS011;9326;49.468;11.008;2024-02-15T18:26:25;35.37;;;28.87;;
18399;SDS011;9326;49.468;11.008;2024-02-15T18:28:53;44.33;;;38.03;;
18399;SDS011;9326;49.468;11.008;2024-02-15T18:31:20;32.67;;;27.67;;
18399;SDS011;9326;49.468;11.008;2024-02-15T18:33:49;21.50;;;18.40;;
18399;SDS011;9326;49.468;11.008;2024-02-15T18:36:19;19.67;;;16.67;;
18399;SDS011;9326;49.468;11.008;2024-02-15T18:38:46;53.20;;;43.17;;
18399;SDS011;9326;49.468;11.008;2024-02-15T18:41:13;70.83;;;45.27;;
18399;SDS011;9326;49.468;11.008;2024-02-15T18:43:40;89.87;;;42.90;;
18399;SDS011;9326;49.468;11.008;2024-02-15T18:46:14;61.23;;;32.83;;
18399;SDS011;9326;49.468;11.008;2024-02-15T18:48:41;45.57;;;26.97;;
18399;SDS011;9326;49.468;11.008;2024-02-15T18:51:14;45.43;;;24.70;;
18399;SDS011;9326;49.468;11.008;2024-02-15T18:53:42;30.27;;;22.03;;
18399;SDS011;9326;49.468;11.008;2024-02-15T18:56:12;48.10;;;35.30;;
18399;SDS011;9326;49.468;11.008;2024-02-15T18:58:41;44.10;;;32.23;;
18399;SDS011;9326;49.468;11.008;2024-02-15T19:01:08;30.73;;;25.47;;
18399;SDS011;9326;49.468;11.008;2024-02-15T19:03:35;23.43;;;18.53;;
18399;SDS011;9326;49.468;11.008;2024-02-15T19:06:02;15.80;;;13.00;;
18399;SDS011;9326;49.468;11.008;2024-02-15T19:08:31;8.17;;;6.90;;
18399;SDS011;9326;49.468;11.008;2024-02-15T19:10:58;7.60;;;5.77;;
18399;SDS011;9326;49.468;11.008;2024-02-15T19:13:25;6.50;;;5.23;;
18399;SDS011;9326;49.468;11.008;2024-02-15T19:15:54;8.20;;;6.60;;
18399;SDS011;9326;49.468;11.008;2024-02-15T19:18:22;4.90;;;4.40;;
18399;SDS011;9326;49.468;11.008;2024-02-15T19:20:49;6.40;;;5.10;;
18399;SDS011;9326;49.468;11.008;2024-02-15T19:23:16;5.57;;;4.00;;
18399;SDS011;9326;49.468;11.008;2024-02-15T19:25:44;5.93;;;4.03;;
18399;SDS011;9326;49.468;11.008;2024-02-15T19:28:11;11.60;;;10.50;;
18399;SDS011;9326;49.468;11.008;2024-02-15T19:30:39;6.83;;;5.27;;
18399;SDS011;9326;49.468;11.008;2024-02-15T19:33:07;7.53;;;5.50;;
18399;SDS011;9326;49.468;11.008;2024-02-15T19:35:34;6.57;;;5.27;;
18399;SDS011;9326;49.468;11.008;2024-02-15T19:38:01;12.20;;;10.90;;
18399;SDS011;9326;49.468;11.008;2024-02-15T19:40:28;6.73;;;5.87;;
18399;SDS011;9326;49.468;11.008;2024-02-15T19:42:56;4.83;;;4.10;;
18399;SDS011;9326;49.468;11.008;2024-02-15T19:45:24;7.23;;;4.87;;
18399;SDS011;9326;49.468;11.008;2024-02-15T19:47:52;6.80;;;5.80;;
18399;SDS011;9326;49.468;11.008;2024-02-15T19:50:21;7.57;;;5.83;;
18399;SDS011;9326;49.468;11.008;2024-02-15T19:52:51;9.50;;;8.57;;
18399;SDS011;9326;49.468;11.008;2024-02-15T19:55:18;10.70;;;9.60;;